Picton, Canada
Current Conditions -  °F | °C
As of 10:00 AM on Monday 24 Nov 2014 (Local Time) from CYTR Reporting Station
Broken Clouds Broken Clouds  
Wind Chill: 14°   Ceiling: 3800
Heat Index: 14°   Visibility: 15mi
Dew Point: 11°   Wind: 14mph
Humidity: 82%   Direction: 180°S
Pressure: 29.27"   Gusts: 25mph
Location:  44.01°N, 77.14°W
Report Text: CYTR 241500Z 18012G22KT 15SM BKN038 BKN067 14/11 A2927 RMK SC5AC2 SLP915
Loading
Personal Weather Stations






























Interactive Weather Map New forecast layout! Learn more

10-Day Weather Forecast

Advertisements
Track Severe Weather on mobile